• Join FlightAware (Why Join?)
  • Login
  • US Flag 
07:31AM EST


 

Airport Tracker/Info


-or-


 

Live Flight TrackerFlight Track Log ✈ N4118B ✈ 07-May-2014 ✈ KTYS - KGZS

Flight Track Log - Related Links

Times and Time Zones

All times are in EDT time to prevent confusion due to time zone crossing. See the N4118B flight status page for this flight to view local times or setup timezone preferences in your user account.

Time Position Orientation Groundspeed Altitude Reporting Facility
EDT Latitude Longitude Course Direction KTS MPH feet Rate Location/Type
02:22PM 35.7814 -84.0892 263° West 106 122 3,500  Level Memphis Center
02:23PM 35.7775 -84.1267 263° West 107 123 4,200 420 Climbing Memphis Center
02:24PM 35.7744 -84.1694 265° West 116 133 4,400 240 Climbing Memphis Center
02:25PM 35.7753 -84.2233 271° West 142 163 4,800 600 Climbing Memphis Center
02:26PM 35.7664 -84.2814 259° West 147 169 5,700 720 Climbing Memphis Center
02:27PM 35.7592 -84.3236 258° West 136 157 6,400 360 Climbing Memphis Center
02:28PM 35.7492 -84.3681 255° West 132 152 6,500  Climbing Memphis Center
02:29PM 35.7394 -84.4183 257° West 140 161 6,500  Level Memphis Center
02:31PM 35.7300 -84.4694 257° West 146 168 6,500  Level Memphis Center
02:32PM 35.7194 -84.5192 255° West 147 169 6,500  Level Memphis Center
02:33PM 35.7047 -84.5792 253° West 149 171 6,600 60 Climbing Memphis Center
02:33PM 35.7003 -84.6039 258° West 156 180 6,600  Level Atlanta Center
02:34PM 35.6875 -84.6550 253° West 161 185 6,600  Level Atlanta Center
02:35PM 35.6769 -84.7061 256° West 161 185 6,600 -60 Level Atlanta Center
02:36PM 35.6642 -84.7569 253° West 161 185 6,500  Descending Atlanta Center
02:37PM 35.6533 -84.8081 255° West 161 185 6,600  Climbing Atlanta Center
02:38PM 35.6406 -84.8592 253° West 161 185 6,600 -60 Level Atlanta Center
02:39PM 35.6297 -84.9075 255° West 161 185 6,500  Descending Atlanta Center
02:40PM 35.6189 -84.9611 256° West 161 185 6,600  Climbing Atlanta Center
02:42PM 35.5981 -85.0508 254° West 153 176 6,500 -60 Descending Memphis Center
02:43PM 35.5858 -85.1025 254° West 154 177 6,500  Level Memphis Center
02:44PM 35.5750 -85.1528 255° West 154 177 6,500  Level Memphis Center
02:45PM 35.5647 -85.2056 257° West 154 177 6,500  Level Memphis Center
02:46PM 35.5539 -85.2581 256° West 155 178 6,500 -60 Level Memphis Center
02:47PM 35.5356 -85.3178 249° West 155 178 6,400 -60 Descending Memphis Center
02:48PM 35.5231 -85.3664 252° West 156 180 6,400  Level Memphis Center
02:49PM 35.5122 -85.4156 255° West 155 178 6,400  Level Memphis Center
02:50PM 35.5003 -85.4656 254° West 153 176 6,400  Level Memphis Center
02:51PM 35.4894 -85.5169 255° West 154 177 6,400  Level Memphis Center
02:52PM 35.4781 -85.5703 255° West 156 180 6,400  Level Memphis Center
02:53PM 35.4656 -85.6306 256° West 156 180 6,500  Climbing Memphis Center
02:54PM 35.4547 -85.6833 256° West 156 180 6,400 -60 Descending Memphis Center
02:55PM 35.4433 -85.7350 255° West 156 180 6,400  Level Memphis Center
02:56PM 35.4319 -85.7897 256° West 162 186 6,400  Level Memphis Center
02:57PM 35.4211 -85.8406 255° West 159 183 6,400  Level Memphis Center
02:58PM 35.4111 -85.8925 257° West 159 183 6,400  Level Memphis Center
03:00PM 35.3983 -85.9567 256° West 160 184 6,400  Level Memphis Center
03:01PM 35.3894 -86.0086 258° West 160 184 6,400  Level Memphis Center
03:02PM 35.3800 -86.0600 257° West 159 183 6,500  Climbing Memphis Center
03:03PM 35.3711 -86.1133 258° West 159 183 6,400 -60 Descending Memphis Center
03:04PM 35.3617 -86.1664 258° West 159 183 6,400  Level Memphis Center
03:05PM 35.3511 -86.2225 257° West 159 183 6,400  Level Memphis Center
03:06PM 35.3431 -86.2767 260° West 159 183 6,400  Level Memphis Center
03:07PM 35.3317 -86.3281 255° West 159 183 6,500  Climbing Memphis Center
03:08PM 35.3203 -86.3786 255° West 157 181 6,400 -60 Descending Memphis Center
03:09PM 35.3086 -86.4292 254° West 156 180 6,400  Level Memphis Center
03:10PM 35.2931 -86.4872 252° West 154 177 6,400  Level Memphis Center
03:11PM 35.2794 -86.5381 252° West 154 177 6,400 -120 Level Memphis Center
03:12PM 35.2675 -86.5858 253° West 150 173 6,200 -420 Descending Memphis Center
03:13PM 35.2544 -86.6356 252° West 150 173 5,600 -600 Descending Memphis Center
03:14PM 35.2417 -86.6856 253° West 150 173 5,000 -720 Descending Memphis Center
03:15PM 35.2275 -86.7372 251° West 153 176 4,100 -780 Descending Memphis Center
03:16PM 35.2131 -86.7894 251° West 157 181 3,400 -720 Descending Memphis Center